sensor_id;sensor_type;location;lat;lon;timestamp;P1;durP1;ratioP1;P2;durP2;ratioP2
4646;SDS011;2336;47.822;7.564;2023-04-06T00:02:26;6.80;;;6.40;;
4646;SDS011;2336;47.822;7.564;2023-04-06T00:04:54;7.20;;;6.70;;
4646;SDS011;2336;47.822;7.564;2023-04-06T00:07:21;7.33;;;6.73;;
4646;SDS011;2336;47.822;7.564;2023-04-06T00:09:48;7.10;;;6.60;;
4646;SDS011;2336;47.822;7.564;2023-04-06T00:12:15;6.60;;;6.10;;
4646;SDS011;2336;47.822;7.564;2023-04-06T00:14:41;6.23;;;5.73;;
4646;SDS011;2336;47.822;7.564;2023-04-06T00:17:08;6.10;;;5.70;;
4646;SDS011;2336;47.822;7.564;2023-04-06T00:19:35;6.47;;;5.77;;
4646;SDS011;2336;47.822;7.564;2023-04-06T00:22:03;6.33;;;5.70;;
4646;SDS011;2336;47.822;7.564;2023-04-06T00:24:30;6.30;;;5.80;;
4646;SDS011;2336;47.822;7.564;2023-04-06T00:26:56;6.50;;;5.97;;
4646;SDS011;2336;47.822;7.564;2023-04-06T00:29:23;6.10;;;5.57;;
4646;SDS011;2336;47.822;7.564;2023-04-06T00:31:50;6.50;;;6.10;;
4646;SDS011;2336;47.822;7.564;2023-04-06T00:34:16;6.47;;;5.97;;
4646;SDS011;2336;47.822;7.564;2023-04-06T00:36:43;6.40;;;6.00;;
4646;SDS011;2336;47.822;7.564;2023-04-06T00:39:11;7.10;;;6.60;;
4646;SDS011;2336;47.822;7.564;2023-04-06T00:44:05;8.20;;;7.43;;
4646;SDS011;2336;47.822;7.564;2023-04-06T00:46:32;6.60;;;6.20;;
4646;SDS011;2336;47.822;7.564;2023-04-06T00:48:58;8.33;;;7.10;;
4646;SDS011;2336;47.822;7.564;2023-04-06T00:51:25;10.47;;;8.13;;
4646;SDS011;2336;47.822;7.564;2023-04-06T00:53:52;7.93;;;7.17;;
4646;SDS011;2336;47.822;7.564;2023-04-06T00:56:20;7.70;;;7.10;;
4646;SDS011;2336;47.822;7.564;2023-04-06T00:58:48;8.33;;;7.53;;
4646;SDS011;2336;47.822;7.564;2023-04-06T01:01:15;8.13;;;7.47;;
4646;SDS011;2336;47.822;7.564;2023-04-06T01:03:42;8.83;;;8.07;;
4646;SDS011;2336;47.822;7.564;2023-04-06T01:06:12;8.43;;;7.70;;
4646;SDS011;2336;47.822;7.564;2023-04-06T01:08:39;7.63;;;6.90;;
4646;SDS011;2336;47.822;7.564;2023-04-06T01:11:06;8.10;;;7.40;;
4646;SDS011;2336;47.822;7.564;2023-04-06T01:13:34;9.27;;;8.37;;
4646;SDS011;2336;47.822;7.564;2023-04-06T01:16:01;14.00;;;7.80;;
4646;SDS011;2336;47.822;7.564;2023-04-06T01:18:28;8.83;;;7.93;;
4646;SDS011;2336;47.822;7.564;2023-04-06T01:20:55;9.50;;;8.23;;
4646;SDS011;2336;47.822;7.564;2023-04-06T01:23:24;9.60;;;8.80;;
4646;SDS011;2336;47.822;7.564;2023-04-06T01:25:51;8.77;;;7.90;;
4646;SDS011;2336;47.822;7.564;2023-04-06T01:28:18;9.23;;;8.40;;
4646;SDS011;2336;47.822;7.564;2023-04-06T01:30:45;9.03;;;8.23;;
4646;SDS011;2336;47.822;7.564;2023-04-06T01:33:11;9.07;;;8.27;;
4646;SDS011;2336;47.822;7.564;2023-04-06T01:35:38;12.43;;;8.57;;
4646;SDS011;2336;47.822;7.564;2023-04-06T01:38:05;9.23;;;8.43;;
4646;SDS011;2336;47.822;7.564;2023-04-06T01:40:33;9.07;;;8.37;;
4646;SDS011;2336;47.822;7.564;2023-04-06T01:42:59;9.17;;;8.27;;
4646;SDS011;2336;47.822;7.564;2023-04-06T01:45:26;9.20;;;8.40;;
4646;SDS011;2336;47.822;7.564;2023-04-06T01:47:53;9.20;;;8.30;;
4646;SDS011;2336;47.822;7.564;2023-04-06T01:50:20;8.63;;;7.90;;
4646;SDS011;2336;47.822;7.564;2023-04-06T01:52:46;8.77;;;7.87;;
4646;SDS011;2336;47.822;7.564;2023-04-06T01:55:13;9.63;;;8.67;;
4646;SDS011;2336;47.822;7.564;2023-04-06T01:57:41;8.73;;;8.00;;
4646;SDS011;2336;47.822;7.564;2023-04-06T02:00:08;9.60;;;8.60;;
4646;SDS011;2336;47.822;7.564;2023-04-06T02:02:36;8.13;;;7.43;;
4646;SDS011;2336;47.822;7.564;2023-04-06T02:05:03;8.10;;;7.50;;
4646;SDS011;2336;47.822;7.564;2023-04-06T02:07:30;8.27;;;7.60;;
4646;SDS011;2336;47.822;7.564;2023-04-06T02:09:57;9.67;;;8.30;;
4646;SDS011;2336;47.822;7.564;2023-04-06T02:12:23;8.57;;;7.67;;
4646;SDS011;2336;47.822;7.564;2023-04-06T02:14:51;8.53;;;7.57;;
4646;SDS011;2336;47.822;7.564;2023-04-06T02:17:18;7.37;;;6.87;;
4646;SDS011;2336;47.822;7.564;2023-04-06T02:19:45;7.83;;;7.13;;
4646;SDS011;2336;47.822;7.564;2023-04-06T02:22:12;9.40;;;7.20;;
4646;SDS011;2336;47.822;7.564;2023-04-06T02:24:38;6.17;;;5.77;;
4646;SDS011;2336;47.822;7.564;2023-04-06T02:27:05;6.20;;;5.80;;
4646;SDS011;2336;47.822;7.564;2023-04-06T02:29:32;7.20;;;6.60;;
4646;SDS011;2336;47.822;7.564;2023-04-06T02:32:00;6.43;;;6.03;;
4646;SDS011;2336;47.822;7.564;2023-04-06T02:34:26;7.27;;;6.57;;
4646;SDS011;2336;47.822;7.564;2023-04-06T02:36:54;6.73;;;6.23;;
4646;SDS011;2336;47.822;7.564;2023-04-06T02:39:21;6.83;;;6.33;;
4646;SDS011;2336;47.822;7.564;2023-04-06T02:41:48;7.07;;;6.57;;
4646;SDS011;2336;47.822;7.564;2023-04-06T02:44:14;7.43;;;6.83;;
4646;SDS011;2336;47.822;7.564;2023-04-06T02:46:41;7.53;;;6.83;;
4646;SDS011;2336;47.822;7.564;2023-04-06T02:49:09;6.90;;;6.40;;
4646;SDS011;2336;47.822;7.564;2023-04-06T02:51:36;5.90;;;5.50;;
4646;SDS011;2336;47.822;7.564;2023-04-06T02:54:02;7.53;;;6.90;;
4646;SDS011;2336;47.822;7.564;2023-04-06T02:56:29;6.73;;;6.13;;
4646;SDS011;2336;47.822;7.564;2023-04-06T02:58:56;7.33;;;6.83;;
4646;SDS011;2336;47.822;7.564;2023-04-06T03:01:23;7.23;;;6.73;;
4646;SDS011;2336;47.822;7.564;2023-04-06T03:03:50;7.13;;;6.47;;
4646;SDS011;2336;47.822;7.564;2023-04-06T03:06:18;6.57;;;6.07;;
4646;SDS011;2336;47.822;7.564;2023-04-06T03:08:45;6.77;;;6.17;;
4646;SDS011;2336;47.822;7.564;2023-04-06T03:11:12;7.47;;;6.53;;
4646;SDS011;2336;47.822;7.564;2023-04-06T03:13:39;5.77;;;5.47;;
4646;SDS011;2336;47.822;7.564;2023-04-06T03:16:05;7.17;;;6.67;;
4646;SDS011;2336;47.822;7.564;2023-04-06T03:18:32;9.20;;;7.77;;
4646;SDS011;2336;47.822;7.564;2023-04-06T03:20:59;8.13;;;7.43;;
4646;SDS011;2336;47.822;7.564;2023-04-06T03:23:27;7.93;;;7.33;;
4646;SDS011;2336;47.822;7.564;2023-04-06T03:25:54;6.87;;;6.33;;
4646;SDS011;2336;47.822;7.564;2023-04-06T03:28:21;6.67;;;6.17;;
4646;SDS011;2336;47.822;7.564;2023-04-06T03:30:48;6.33;;;5.97;;
4646;SDS011;2336;47.822;7.564;2023-04-06T03:33:15;6.13;;;5.70;;
4646;SDS011;2336;47.822;7.564;2023-04-06T03:35:41;5.13;;;4.87;;
4646;SDS011;2336;47.822;7.564;2023-04-06T03:38:08;5.40;;;5.10;;
4646;SDS011;2336;47.822;7.564;2023-04-06T03:40:36;5.50;;;5.20;;
4646;SDS011;2336;47.822;7.564;2023-04-06T03:43:03;5.00;;;4.60;;
4646;SDS011;2336;47.822;7.564;2023-04-06T03:45:30;5.50;;;4.90;;
4646;SDS011;2336;47.822;7.564;2023-04-06T03:47:57;5.83;;;5.20;;
4646;SDS011;2336;47.822;7.564;2023-04-06T03:50:24;5.77;;;5.37;;
4646;SDS011;2336;47.822;7.564;2023-04-06T03:52:51;6.07;;;5.57;;
4646;SDS011;2336;47.822;7.564;2023-04-06T03:55:17;5.43;;;5.10;;
4646;SDS011;2336;47.822;7.564;2023-04-06T03:57:45;5.50;;;4.93;;
4646;SDS011;2336;47.822;7.564;2023-04-06T04:00:12;5.03;;;4.77;;
4646;SDS011;2336;47.822;7.564;2023-04-06T04:02:39;5.33;;;5.03;;
4646;SDS011;2336;47.822;7.564;2023-04-06T04:05:06;5.83;;;5.43;;
4646;SDS011;2336;47.822;7.564;2023-04-06T04:07:33;5.87;;;5.47;;
4646;SDS011;2336;47.822;7.564;2023-04-06T04:10:00;5.83;;;5.43;;
4646;SDS011;2336;47.822;7.564;2023-04-06T04:12:27;6.30;;;5.80;;
4646;SDS011;2336;47.822;7.564;2023-04-06T04:14:55;7.67;;;6.87;;
4646;SDS011;2336;47.822;7.564;2023-04-06T04:17:21;7.10;;;6.60;;
4646;SDS011;2336;47.822;7.564;2023-04-06T04:19:48;7.63;;;7.00;;
4646;SDS011;2336;47.822;7.564;2023-04-06T04:22:15;6.77;;;6.27;;
4646;SDS011;2336;47.822;7.564;2023-04-06T04:24:41;7.63;;;7.00;;
4646;SDS011;2336;47.822;7.564;2023-04-06T04:27:08;7.53;;;6.93;;
4646;SDS011;2336;47.822;7.564;2023-04-06T04:29:35;7.27;;;6.67;;
4646;SDS011;2336;47.822;7.564;2023-04-06T04:32:03;7.83;;;7.07;;
4646;SDS011;2336;47.822;7.564;2023-04-06T04:34:30;10.53;;;7.30;;
4646;SDS011;2336;47.822;7.564;2023-04-06T04:36:57;8.40;;;7.50;;
4646;SDS011;2336;47.822;7.564;2023-04-06T04:39:24;7.20;;;6.60;;
4646;SDS011;2336;47.822;7.564;2023-04-06T04:41:51;7.40;;;6.80;;
4646;SDS011;2336;47.822;7.564;2023-04-06T04:44:18;7.33;;;6.63;;
4646;SDS011;2336;47.822;7.564;2023-04-06T04:46:45;7.20;;;6.60;;
4646;SDS011;2336;47.822;7.564;2023-04-06T04:49:13;7.40;;;6.80;;
4646;SDS011;2336;47.822;7.564;2023-04-06T04:51:40;8.30;;;7.40;;
4646;SDS011;2336;47.822;7.564;2023-04-06T04:54:06;7.77;;;7.17;;
4646;SDS011;2336;47.822;7.564;2023-04-06T04:56:33;9.10;;;8.20;;
4646;SDS011;2336;47.822;7.564;2023-04-06T04:59:00;9.17;;;8.23;;
4646;SDS011;2336;47.822;7.564;2023-04-06T05:01:27;7.93;;;7.23;;
4646;SDS011;2336;47.822;7.564;2023-04-06T05:03:53;8.00;;;7.30;;
4646;SDS011;2336;47.822;7.564;2023-04-06T05:06:21;9.00;;;8.30;;
4646;SDS011;2336;47.822;7.564;2023-04-06T05:08:48;8.20;;;7.50;;
4646;SDS011;2336;47.822;7.564;2023-04-06T05:11:15;8.50;;;7.70;;
4646;SDS011;2336;47.822;7.564;2023-04-06T05:13:42;8.37;;;7.70;;
4646;SDS011;2336;47.822;7.564;2023-04-06T05:16:08;10.13;;;8.30;;
4646;SDS011;2336;47.822;7.564;2023-04-06T05:18:35;9.53;;;8.53;;
4646;SDS011;2336;47.822;7.564;2023-04-06T05:21:02;7.97;;;7.33;;
4646;SDS011;2336;47.822;7.564;2023-04-06T05:23:30;8.43;;;7.10;;
4646;SDS011;2336;47.822;7.564;2023-04-06T05:25:57;8.20;;;6.93;;
4646;SDS011;2336;47.822;7.564;2023-04-06T05:28:24;6.90;;;6.40;;
4646;SDS011;2336;47.822;7.564;2023-04-06T05:30:50;7.33;;;6.63;;
4646;SDS011;2336;47.822;7.564;2023-04-06T05:33:17;6.17;;;5.77;;
4646;SDS011;2336;47.822;7.564;2023-04-06T05:35:44;7.20;;;6.60;;
4646;SDS011;2336;47.822;7.564;2023-04-06T05:38:11;5.90;;;5.40;;
4646;SDS011;2336;47.822;7.564;2023-04-06T05:40:39;10.80;;;9.40;;
4646;SDS011;2336;47.822;7.564;2023-04-06T05:43:06;6.20;;;5.80;;
4646;SDS011;2336;47.822;7.564;2023-04-06T05:45:33;7.27;;;6.57;;
4646;SDS011;2336;47.822;7.564;2023-04-06T05:48:00;8.23;;;6.90;;
4646;SDS011;2336;47.822;7.564;2023-04-06T05:50:27;7.93;;;6.07;;
4646;SDS011;2336;47.822;7.564;2023-04-06T05:52:54;7.27;;;6.67;;
4646;SDS011;2336;47.822;7.564;2023-04-06T05:55:21;6.70;;;6.00;;
4646;SDS011;2336;47.822;7.564;2023-04-06T05:57:49;6.57;;;5.80;;
4646;SDS011;2336;47.822;7.564;2023-04-06T06:00:16;12.13;;;5.77;;
4646;SDS011;2336;47.822;7.564;2023-04-06T06:02:42;6.93;;;5.37;;
4646;SDS011;2336;47.822;7.564;2023-04-06T06:05:09;16.00;;;5.40;;
4646;SDS011;2336;47.822;7.564;2023-04-06T06:07:36;11.97;;;5.57;;
4646;SDS011;2336;47.822;7.564;2023-04-06T06:10:03;8.40;;;5.47;;
4646;SDS011;2336;47.822;7.564;2023-04-06T06:12:30;6.30;;;5.80;;
4646;SDS011;2336;47.822;7.564;2023-04-06T06:14:58;10.37;;;5.90;;
4646;SDS011;2336;47.822;7.564;2023-04-06T06:17:25;9.27;;;5.50;;
4646;SDS011;2336;47.822;7.564;2023-04-06T06:19:52;6.43;;;5.87;;
4646;SDS011;2336;47.822;7.564;2023-04-06T06:22:19;8.70;;;5.80;;
4646;SDS011;2336;47.822;7.564;2023-04-06T06:24:45;8.77;;;6.93;;
4646;SDS011;2336;47.822;7.564;2023-04-06T06:27:12;7.73;;;7.03;;
4646;SDS011;2336;47.822;7.564;2023-04-06T06:29:39;6.90;;;6.40;;
4646;SDS011;2336;47.822;7.564;2023-04-06T06:32:07;7.53;;;6.87;;
4646;SDS011;2336;47.822;7.564;2023-04-06T06:34:34;6.63;;;6.13;;
4646;SDS011;2336;47.822;7.564;2023-04-06T06:37:01;8.90;;;7.10;;
4646;SDS011;2336;47.822;7.564;2023-04-06T06:39:28;10.87;;;7.70;;
4646;SDS011;2336;47.822;7.564;2023-04-06T06:41:54;7.73;;;7.13;;
4646;SDS011;2336;47.822;7.564;2023-04-06T06:44:21;7.13;;;6.30;;
4646;SDS011;2336;47.822;7.564;2023-04-06T06:46:48;6.90;;;6.33;;
4646;SDS011;2336;47.822;7.564;2023-04-06T06:49:16;5.77;;;5.20;;
4646;SDS011;2336;47.822;7.564;2023-04-06T06:51:43;6.67;;;6.07;;
4646;SDS011;2336;47.822;7.564;2023-04-06T06:54:10;6.17;;;5.50;;
4646;SDS011;2336;47.822;7.564;2023-04-06T06:56:37;6.03;;;5.53;;
4646;SDS011;2336;47.822;7.564;2023-04-06T06:59:04;5.00;;;4.70;;
4646;SDS011;2336;47.822;7.564;2023-04-06T07:01:31;5.70;;;5.40;;
4646;SDS011;2336;47.822;7.564;2023-04-06T07:03:58;6.00;;;5.60;;
4646;SDS011;2336;47.822;7.564;2023-04-06T07:06:27;5.93;;;5.47;;
4646;SDS011;2336;47.822;7.564;2023-04-06T07:08:53;5.90;;;5.50;;
4646;SDS011;2336;47.822;7.564;2023-04-06T07:11:20;5.90;;;5.30;;
4646;SDS011;2336;47.822;7.564;2023-04-06T07:13:47;8.70;;;6.37;;
4646;SDS011;2336;47.822;7.564;2023-04-06T07:16:13;6.37;;;5.87;;
4646;SDS011;2336;47.822;7.564;2023-04-06T07:18:40;5.87;;;5.47;;
4646;SDS011;2336;47.822;7.564;2023-04-06T07:21:07;8.90;;;7.80;;
4646;SDS011;2336;47.822;7.564;2023-04-06T07:23:35;52.40;;;30.60;;
4646;SDS011;2336;47.822;7.564;2023-04-06T07:26:01;133.47;;;69.57;;
4646;SDS011;2336;47.822;7.564;2023-04-06T07:28:28;106.13;;;53.10;;
4646;SDS011;2336;47.822;7.564;2023-04-06T07:30:55;59.30;;;32.77;;
4646;SDS011;2336;47.822;7.564;2023-04-06T07:33:22;57.27;;;30.47;;
4646;SDS011;2336;47.822;7.564;2023-04-06T07:35:48;31.00;;;18.73;;
4646;SDS011;2336;47.822;7.564;2023-04-06T07:38:16;7.60;;;6.43;;
4646;SDS011;2336;47.822;7.564;2023-04-06T07:40:44;6.10;;;5.70;;
4646;SDS011;2336;47.822;7.564;2023-04-06T07:43:11;6.93;;;5.80;;
4646;SDS011;2336;47.822;7.564;2023-04-06T07:45:37;5.90;;;5.50;;
4646;SDS011;2336;47.822;7.564;2023-04-06T07:48:04;7.50;;;5.90;;
4646;SDS011;2336;47.822;7.564;2023-04-06T07:50:31;5.97;;;5.50;;
4646;SDS011;2336;47.822;7.564;2023-04-06T07:52:58;6.07;;;5.57;;
4646;SDS011;2336;47.822;7.564;2023-04-06T07:55:25;6.03;;;5.63;;
4646;SDS011;2336;47.822;7.564;2023-04-06T07:57:53;5.60;;;5.30;;
4646;SDS011;2336;47.822;7.564;2023-04-06T08:00:20;5.27;;;4.83;;
4646;SDS011;2336;47.822;7.564;2023-04-06T08:02:47;6.17;;;5.57;;
4646;SDS011;2336;47.822;7.564;2023-04-06T08:05:14;6.03;;;5.53;;
4646;SDS011;2336;47.822;7.564;2023-04-06T08:07:41;6.33;;;5.80;;
4646;SDS011;2336;47.822;7.564;2023-04-06T08:10:08;7.80;;;6.00;;
4646;SDS011;2336;47.822;7.564;2023-04-06T08:12:35;6.43;;;5.93;;
4646;SDS011;2336;47.822;7.564;2023-04-06T08:15:04;5.87;;;5.47;;
4646;SDS011;2336;47.822;7.564;2023-04-06T08:17:31;6.03;;;5.60;;
4646;SDS011;2336;47.822;7.564;2023-04-06T08:19:59;6.40;;;5.90;;
4646;SDS011;2336;47.822;7.564;2023-04-06T08:22:25;6.53;;;5.93;;
4646;SDS011;2336;47.822;7.564;2023-04-06T08:24:52;7.07;;;6.37;;
4646;SDS011;2336;47.822;7.564;2023-04-06T08:27:19;7.07;;;6.37;;
4646;SDS011;2336;47.822;7.564;2023-04-06T08:29:47;5.70;;;5.40;;
4646;SDS011;2336;47.822;7.564;2023-04-06T08:32:17;6.80;;;6.00;;
4646;SDS011;2336;47.822;7.564;2023-04-06T08:34:44;5.80;;;5.40;;
4646;SDS011;2336;47.822;7.564;2023-04-06T08:37:10;6.47;;;5.87;;
4646;SDS011;2336;47.822;7.564;2023-04-06T08:39:37;6.83;;;6.33;;
4646;SDS011;2336;47.822;7.564;2023-04-06T08:42:04;7.27;;;6.67;;
4646;SDS011;2336;47.822;7.564;2023-04-06T08:44:36;7.40;;;6.80;;
4646;SDS011;2336;47.822;7.564;2023-04-06T08:47:04;7.43;;;5.60;;
4646;SDS011;2336;47.822;7.564;2023-04-06T08:49:33;6.60;;;6.00;;
4646;SDS011;2336;47.822;7.564;2023-04-06T08:52:03;6.83;;;6.13;;
4646;SDS011;2336;47.822;7.564;2023-04-06T08:54:32;6.90;;;6.20;;
4646;SDS011;2336;47.822;7.564;2023-04-06T08:56:58;6.73;;;6.20;;
4646;SDS011;2336;47.822;7.564;2023-04-06T08:59:26;6.50;;;5.63;;
4646;SDS011;2336;47.822;7.564;2023-04-06T09:01:53;7.20;;;6.57;;
4646;SDS011;2336;47.822;7.564;2023-04-06T09:04:21;6.90;;;5.87;;
4646;SDS011;2336;47.822;7.564;2023-04-06T09:06:49;6.33;;;5.73;;
4646;SDS011;2336;47.822;7.564;2023-04-06T09:09:16;5.67;;;5.30;;
4646;SDS011;2336;47.822;7.564;2023-04-06T09:11:43;6.13;;;5.70;;
4646;SDS011;2336;47.822;7.564;2023-04-06T09:14:11;6.97;;;6.37;;
4646;SDS011;2336;47.822;7.564;2023-04-06T09:16:41;8.63;;;5.70;;
4646;SDS011;2336;47.822;7.564;2023-04-06T09:19:09;6.00;;;5.60;;
4646;SDS011;2336;47.822;7.564;2023-04-06T09:21:37;7.30;;;6.70;;
4646;SDS011;2336;47.822;7.564;2023-04-06T09:24:06;7.10;;;5.90;;
4646;SDS011;2336;47.822;7.564;2023-04-06T09:26:43;6.90;;;6.30;;
4646;SDS011;2336;47.822;7.564;2023-04-06T09:29:21;15.87;;;9.90;;
4646;SDS011;2336;47.822;7.564;2023-04-06T09:31:48;10.13;;;6.20;;
4646;SDS011;2336;47.822;7.564;2023-04-06T09:34:20;6.83;;;6.30;;
4646;SDS011;2336;47.822;7.564;2023-04-06T09:36:47;10.40;;;6.67;;
4646;SDS011;2336;47.822;7.564;2023-04-06T09:39:19;7.30;;;6.60;;
4646;SDS011;2336;47.822;7.564;2023-04-06T09:41:49;7.90;;;6.77;;
4646;SDS011;2336;47.822;7.564;2023-04-06T09:44:16;12.13;;;7.60;;
4646;SDS011;2336;47.822;7.564;2023-04-06T09:46:44;42.90;;;12.57;;
4646;SDS011;2336;47.822;7.564;2023-04-06T09:49:12;7.67;;;7.07;;
4646;SDS011;2336;47.822;7.564;2023-04-06T09:51:39;6.67;;;6.17;;
4646;SDS011;2336;47.822;7.564;2023-04-06T09:54:07;5.80;;;5.40;;
4646;SDS011;2336;47.822;7.564;2023-04-06T09:56:39;7.53;;;6.70;;
4646;SDS011;2336;47.822;7.564;2023-04-06T09:59:13;9.10;;;6.03;;
4646;SDS011;2336;47.822;7.564;2023-04-06T10:01:44;7.40;;;5.97;;
4646;SDS011;2336;47.822;7.564;2023-04-06T10:04:17;5.80;;;5.40;;
4646;SDS011;2336;47.822;7.564;2023-04-06T10:06:52;6.70;;;6.03;;
4646;SDS011;2336;47.822;7.564;2023-04-06T10:09:22;6.37;;;5.83;;
4646;SDS011;2336;47.822;7.564;2023-04-06T10:11:53;7.77;;;6.27;;
4646;SDS011;2336;47.822;7.564;2023-04-06T10:14:21;5.60;;;5.20;;
4646;SDS011;2336;47.822;7.564;2023-04-06T10:16:48;6.03;;;5.30;;
4646;SDS011;2336;47.822;7.564;2023-04-06T10:19:17;6.30;;;5.80;;
4646;SDS011;2336;47.822;7.564;2023-04-06T10:21:48;6.70;;;5.80;;
4646;SDS011;2336;47.822;7.564;2023-04-06T10:24:19;5.23;;;4.87;;
4646;SDS011;2336;47.822;7.564;2023-04-06T10:26:57;5.70;;;5.20;;
4646;SDS011;2336;47.822;7.564;2023-04-06T10:29:25;6.37;;;5.90;;
4646;SDS011;2336;47.822;7.564;2023-04-06T10:31:52;6.47;;;5.40;;
4646;SDS011;2336;47.822;7.564;2023-04-06T10:34:20;5.57;;;5.17;;
4646;SDS011;2336;47.822;7.564;2023-04-06T10:36:47;9.67;;;6.00;;
4646;SDS011;2336;47.822;7.564;2023-04-06T10:39:14;5.50;;;5.00;;
4646;SDS011;2336;47.822;7.564;2023-04-06T10:41:51;6.00;;;5.50;;
4646;SDS011;2336;47.822;7.564;2023-04-06T10:44:20;5.20;;;4.57;;
4646;SDS011;2336;47.822;7.564;2023-04-06T10:46:54;4.70;;;4.40;;
4646;SDS011;2336;47.822;7.564;2023-04-06T10:49:21;4.97;;;4.60;;
4646;SDS011;2336;47.822;7.564;2023-04-06T10:51:51;5.23;;;4.73;;
4646;SDS011;2336;47.822;7.564;2023-04-06T10:54:20;4.97;;;4.57;;
4646;SDS011;2336;47.822;7.564;2023-04-06T10:56:47;5.30;;;4.90;;
4646;SDS011;2336;47.822;7.564;2023-04-06T10:59:19;5.70;;;5.30;;
4646;SDS011;2336;47.822;7.564;2023-04-06T11:01:46;5.60;;;5.10;;
4646;SDS011;2336;47.822;7.564;2023-04-06T11:04:15;5.97;;;5.37;;
4646;SDS011;2336;47.822;7.564;2023-04-06T11:06:45;5.00;;;4.70;;
4646;SDS011;2336;47.822;7.564;2023-04-06T11:09:22;5.57;;;5.07;;
4646;SDS011;2336;47.822;7.564;2023-04-06T11:11:50;6.00;;;5.40;;
4646;SDS011;2336;47.822;7.564;2023-04-06T11:14:17;5.47;;;4.83;;
4646;SDS011;2336;47.822;7.564;2023-04-06T11:16:46;5.80;;;4.53;;
4646;SDS011;2336;47.822;7.564;2023-04-06T11:19:14;4.50;;;4.20;;
4646;SDS011;2336;47.822;7.564;2023-04-06T11:21:42;4.23;;;3.93;;
4646;SDS011;2336;47.822;7.564;2023-04-06T11:24:13;3.40;;;3.27;;
4646;SDS011;2336;47.822;7.564;2023-04-06T11:26:43;4.23;;;4.00;;
4646;SDS011;2336;47.822;7.564;2023-04-06T11:29:14;4.57;;;4.27;;
4646;SDS011;2336;47.822;7.564;2023-04-06T11:31:44;4.37;;;4.07;;
4646;SDS011;2336;47.822;7.564;2023-04-06T11:34:12;5.13;;;4.60;;
4646;SDS011;2336;47.822;7.564;2023-04-06T11:36:42;4.50;;;4.20;;
4646;SDS011;2336;47.822;7.564;2023-04-06T11:39:09;4.20;;;4.00;;
4646;SDS011;2336;47.822;7.564;2023-04-06T11:41:37;4.13;;;3.83;;
4646;SDS011;2336;47.822;7.564;2023-04-06T11:44:03;6.40;;;4.10;;
4646;SDS011;2336;47.822;7.564;2023-04-06T11:46:32;4.50;;;4.20;;
4646;SDS011;2336;47.822;7.564;2023-04-06T11:49:00;4.60;;;4.27;;
4646;SDS011;2336;47.822;7.564;2023-04-06T11:51:28;4.93;;;4.53;;
4646;SDS011;2336;47.822;7.564;2023-04-06T11:53:54;4.70;;;4.40;;
4646;SDS011;2336;47.822;7.564;2023-04-06T11:56:25;5.17;;;4.80;;
4646;SDS011;2336;47.822;7.564;2023-04-06T11:58:54;5.00;;;4.27;;
4646;SDS011;2336;47.822;7.564;2023-04-06T12:01:21;4.70;;;4.40;;
4646;SDS011;2336;47.822;7.564;2023-04-06T12:03:48;5.00;;;4.60;;
4646;SDS011;2336;47.822;7.564;2023-04-06T12:06:17;4.20;;;4.00;;
4646;SDS011;2336;47.822;7.564;2023-04-06T12:08:44;4.73;;;4.33;;
4646;SDS011;2336;47.822;7.564;2023-04-06T12:11:11;7.40;;;4.40;;
4646;SDS011;2336;47.822;7.564;2023-04-06T12:13:38;3.80;;;3.60;;
4646;SDS011;2336;47.822;7.564;2023-04-06T12:16:05;5.10;;;3.80;;
4646;SDS011;2336;47.822;7.564;2023-04-06T12:18:32;4.63;;;4.27;;
4646;SDS011;2336;47.822;7.564;2023-04-06T12:20:59;4.60;;;4.20;;
4646;SDS011;2336;47.822;7.564;2023-04-06T12:23:27;5.50;;;4.50;;
4646;SDS011;2336;47.822;7.564;2023-04-06T12:25:53;5.37;;;4.00;;
4646;SDS011;2336;47.822;7.564;2023-04-06T12:28:20;4.20;;;3.93;;
4646;SDS011;2336;47.822;7.564;2023-04-06T12:30:48;4.90;;;4.53;;
4646;SDS011;2336;47.822;7.564;2023-04-06T12:33:15;5.07;;;4.67;;
4646;SDS011;2336;47.822;7.564;2023-04-06T12:35:42;4.33;;;4.03;;
4646;SDS011;2336;47.822;7.564;2023-04-06T12:38:09;4.70;;;4.30;;
4646;SDS011;2336;47.822;7.564;2023-04-06T12:40:37;5.50;;;4.87;;
4646;SDS011;2336;47.822;7.564;2023-04-06T12:43:04;4.80;;;4.40;;
4646;SDS011;2336;47.822;7.564;2023-04-06T12:45:32;8.43;;;4.60;;
4646;SDS011;2336;47.822;7.564;2023-04-06T12:47:59;4.73;;;4.37;;
4646;SDS011;2336;47.822;7.564;2023-04-06T12:50:27;5.20;;;4.70;;
4646;SDS011;2336;47.822;7.564;2023-04-06T12:52:54;7.83;;;5.30;;
4646;SDS011;2336;47.822;7.564;2023-04-06T12:55:21;5.60;;;5.20;;
4646;SDS011;2336;47.822;7.564;2023-04-06T12:57:51;4.87;;;4.47;;
4646;SDS011;2336;47.822;7.564;2023-04-06T13:00:19;5.07;;;4.67;;
4646;SDS011;2336;47.822;7.564;2023-04-06T13:02:48;4.60;;;4.20;;
4646;SDS011;2336;47.822;7.564;2023-04-06T13:05:15;9.70;;;5.13;;
4646;SDS011;2336;47.822;7.564;2023-04-06T13:07:44;4.50;;;4.13;;
4646;SDS011;2336;47.822;7.564;2023-04-06T13:10:13;6.07;;;4.57;;
4646;SDS011;2336;47.822;7.564;2023-04-06T13:12:40;5.53;;;5.17;;
4646;SDS011;2336;47.822;7.564;2023-04-06T13:15:09;4.90;;;4.40;;
4646;SDS011;2336;47.822;7.564;2023-04-06T13:17:37;5.93;;;5.33;;
4646;SDS011;2336;47.822;7.564;2023-04-06T13:20:06;5.40;;;5.00;;
4646;SDS011;2336;47.822;7.564;2023-04-06T13:22:33;5.03;;;4.63;;
4646;SDS011;2336;47.822;7.564;2023-04-06T13:25:00;4.53;;;4.20;;
4646;SDS011;2336;47.822;7.564;2023-04-06T13:27:28;4.80;;;4.50;;
4646;SDS011;2336;47.822;7.564;2023-04-06T13:29:59;7.73;;;4.40;;
4646;SDS011;2336;47.822;7.564;2023-04-06T13:32:28;4.37;;;4.13;;
4646;SDS011;2336;47.822;7.564;2023-04-06T13:34:56;4.90;;;4.60;;
4646;SDS011;2336;47.822;7.564;2023-04-06T13:37:23;4.90;;;4.50;;
4646;SDS011;2336;47.822;7.564;2023-04-06T13:39:50;4.50;;;4.20;;
4646;SDS011;2336;47.822;7.564;2023-04-06T13:42:18;5.17;;;4.77;;
4646;SDS011;2336;47.822;7.564;2023-04-06T13:44:45;4.80;;;4.40;;
4646;SDS011;2336;47.822;7.564;2023-04-06T13:47:13;5.20;;;4.77;;
4646;SDS011;2336;47.822;7.564;2023-04-06T13:49:42;4.37;;;3.97;;
4646;SDS011;2336;47.822;7.564;2023-04-06T13:52:10;4.13;;;3.90;;
4646;SDS011;2336;47.822;7.564;2023-04-06T13:54:38;5.43;;;4.77;;
4646;SDS011;2336;47.822;7.564;2023-04-06T13:57:05;5.80;;;5.30;;
4646;SDS011;2336;47.822;7.564;2023-04-06T13:59:33;6.13;;;5.63;;
4646;SDS011;2336;47.822;7.564;2023-04-06T14:02:00;5.90;;;5.40;;
4646;SDS011;2336;47.822;7.564;2023-04-06T14:04:28;5.70;;;5.20;;
4646;SDS011;2336;47.822;7.564;2023-04-06T14:06:56;10.00;;;5.20;;
4646;SDS011;2336;47.822;7.564;2023-04-06T14:09:23;5.93;;;5.43;;
4646;SDS011;2336;47.822;7.564;2023-04-06T14:11:50;6.97;;;5.97;;
4646;SDS011;2336;47.822;7.564;2023-04-06T14:14:18;5.23;;;4.73;;
4646;SDS011;2336;47.822;7.564;2023-04-06T14:16:46;6.83;;;6.23;;
4646;SDS011;2336;47.822;7.564;2023-04-06T14:19:14;6.83;;;5.90;;
4646;SDS011;2336;47.822;7.564;2023-04-06T14:21:43;6.03;;;5.50;;
4646;SDS011;2336;47.822;7.564;2023-04-06T14:24:11;4.93;;;4.60;;
4646;SDS011;2336;47.822;7.564;2023-04-06T14:26:39;5.80;;;5.30;;
4646;SDS011;2336;47.822;7.564;2023-04-06T14:29:08;5.60;;;5.20;;
4646;SDS011;2336;47.822;7.564;2023-04-06T14:31:35;6.30;;;4.97;;
4646;SDS011;2336;47.822;7.564;2023-04-06T14:34:03;6.10;;;5.60;;
4646;SDS011;2336;47.822;7.564;2023-04-06T14:36:31;6.70;;;5.30;;
4646;SDS011;2336;47.822;7.564;2023-04-06T14:39:01;11.80;;;6.70;;
4646;SDS011;2336;47.822;7.564;2023-04-06T14:41:31;7.47;;;6.33;;
4646;SDS011;2336;47.822;7.564;2023-04-06T14:43:59;6.87;;;6.30;;
4646;SDS011;2336;47.822;7.564;2023-04-06T14:46:26;6.87;;;6.30;;
4646;SDS011;2336;47.822;7.564;2023-04-06T14:48:54;6.77;;;6.07;;
4646;SDS011;2336;47.822;7.564;2023-04-06T14:51:23;9.60;;;6.03;;
4646;SDS011;2336;47.822;7.564;2023-04-06T14:53:52;6.13;;;5.53;;
4646;SDS011;2336;47.822;7.564;2023-04-06T14:56:19;5.23;;;4.83;;
4646;SDS011;2336;47.822;7.564;2023-04-06T14:58:48;7.17;;;5.90;;
4646;SDS011;2336;47.822;7.564;2023-04-06T15:01:15;7.10;;;5.90;;
4646;SDS011;2336;47.822;7.564;2023-04-06T15:03:42;13.20;;;8.50;;
4646;SDS011;2336;47.822;7.564;2023-04-06T15:06:11;7.20;;;5.90;;
4646;SDS011;2336;47.822;7.564;2023-04-06T15:08:40;5.90;;;5.40;;
4646;SDS011;2336;47.822;7.564;2023-04-06T15:11:07;7.50;;;5.83;;
4646;SDS011;2336;47.822;7.564;2023-04-06T15:13:33;5.23;;;4.60;;
4646;SDS011;2336;47.822;7.564;2023-04-06T15:16:01;5.80;;;5.30;;
4646;SDS011;2336;47.822;7.564;2023-04-06T15:18:28;5.40;;;5.00;;
4646;SDS011;2336;47.822;7.564;2023-04-06T15:20:55;4.87;;;4.47;;